createdAt,value
2022-12-01T00:00:33.596Z,33.77
2022-12-01T00:03:03.414Z,34.97
2022-12-01T00:05:35.789Z,34.67
2022-12-01T00:08:05.903Z,31.67
2022-12-01T00:10:34.273Z,31.47
2022-12-01T00:13:05.740Z,31.10
2022-12-01T00:15:37.808Z,31.83
2022-12-01T00:18:08.232Z,33.63
2022-12-01T00:20:40.674Z,31.40
2022-12-01T00:23:10.367Z,33.10
2022-12-01T00:25:40.079Z,31.20
2022-12-01T00:28:09.765Z,30.93
2022-12-01T00:30:39.476Z,31.50
2022-12-01T00:33:09.149Z,36.20
2022-12-01T00:35:41.479Z,35.40
2022-12-01T00:38:11.140Z,34.50
2022-12-01T00:40:40.831Z,32.53
2022-12-01T00:43:10.519Z,33.83
2022-12-01T00:45:40.290Z,30.73
2022-12-01T00:48:10.063Z,32.00
2022-12-01T00:50:42.399Z,30.50
2022-12-01T00:53:12.225Z,34.23
2022-12-01T00:55:43.126Z,31.40
2022-12-01T00:58:12.898Z,38.50
2022-12-01T01:00:43.099Z,33.40
2022-12-01T01:03:13.355Z,33.37
2022-12-01T01:05:46.369Z,32.77
2022-12-01T01:08:17.609Z,36.73
2022-12-01T01:10:50.792Z,36.53
2022-12-01T01:13:20.534Z,34.43
2022-12-01T01:16:00.645Z,35.40
2022-12-01T01:18:31.284Z,31.93
2022-12-01T01:21:05.528Z,37.03
2022-12-01T01:23:35.581Z,35.93
2022-12-01T01:26:07.036Z,37.53
2022-12-01T01:28:36.992Z,32.80
2022-12-01T01:31:09.187Z,36.70
2022-12-01T01:33:39.113Z,36.93
2022-12-01T01:36:13.190Z,34.17
2022-12-01T01:38:43.188Z,35.13
2022-12-01T01:41:13.701Z,34.23
2022-12-01T01:43:48.639Z,33.50
2022-12-01T01:46:20.406Z,35.50
2022-12-01T01:48:53.868Z,35.00
2022-12-01T01:51:30.704Z,36.67
2022-12-01T01:54:05.581Z,35.77
2022-12-01T01:56:36.103Z,35.37
2022-12-01T01:59:06.860Z,38.87
2022-12-01T02:01:36.731Z,38.67
2022-12-01T02:04:07.136Z,36.67
2022-12-01T02:06:39.521Z,37.23
2022-12-01T02:09:09.188Z,33.03
2022-12-01T02:12:05.239Z,37.03
2022-12-01T02:14:52.568Z,36.37
2022-12-01T02:17:37.514Z,33.77
2022-12-01T02:20:36.616Z,37.50
2022-12-01T02:23:32.385Z,33.10
2022-12-01T02:26:17.792Z,37.30
2022-12-01T02:29:06.129Z,33.33
2022-12-01T02:31:45.960Z,37.40
2022-12-01T02:34:24.331Z,34.07
2022-12-01T02:36:58.736Z,33.50
2022-12-01T02:39:35.205Z,35.43
2022-12-01T02:42:10.625Z,36.00
2022-12-01T02:44:46.525Z,32.03
2022-12-01T02:47:19.984Z,37.77
2022-12-01T02:49:52.279Z,32.73
2022-12-01T02:52:24.868Z,34.00
2022-12-01T02:54:56.116Z,34.90
2022-12-01T02:57:26.572Z,37.23
2022-12-01T02:59:58.199Z,34.90
2022-12-01T03:02:42.598Z,34.57
2022-12-01T03:05:21.597Z,35.57
2022-12-01T03:08:03.372Z,32.53
2022-12-01T03:10:43.991Z,34.50
2022-12-01T03:13:24.781Z,35.07
2022-12-01T03:16:04.730Z,40.63
2022-12-01T03:18:41.318Z,36.23
2022-12-01T03:21:15.247Z,35.80
2022-12-01T03:23:50.796Z,34.57
2022-12-01T03:26:24.603Z,34.33
2022-12-01T03:28:58.516Z,35.40
2022-12-01T03:31:33.818Z,35.50
2022-12-01T03:34:12.730Z,31.67
2022-12-01T03:36:45.470Z,30.80
2022-12-01T03:39:20.155Z,32.37
2022-12-01T03:41:56.407Z,31.13
2022-12-01T03:44:36.920Z,34.13
2022-12-01T03:47:10.254Z,30.03
2022-12-01T03:49:43.665Z,28.23
2022-12-01T03:52:20.503Z,28.00
2022-12-01T03:54:58.641Z,29.63
2022-12-01T03:57:32.919Z,28.60
2022-12-01T04:00:03.393Z,29.67
2022-12-01T04:02:33.650Z,28.77
2022-12-01T04:05:06.332Z,33.53
2022-12-01T04:07:36.116Z,29.60
2022-12-01T04:10:06.115Z,29.27
2022-12-01T04:12:33.519Z,30.20
2022-12-01T04:15:04.626Z,29.83
2022-12-01T04:17:34.756Z,28.43
2022-12-01T04:20:08.728Z,33.73
2022-12-01T04:22:38.428Z,33.30
2022-12-01T04:25:09.904Z,32.03
2022-12-01T04:27:40.002Z,29.93
2022-12-01T04:30:11.797Z,30.47
2022-12-01T04:32:42.262Z,27.93
2022-12-01T04:35:15.551Z,28.20
2022-12-01T04:37:45.271Z,25.63
2022-12-01T04:40:15.596Z,24.23
2022-12-01T04:42:45.321Z,22.37
2022-12-01T04:45:15.027Z,21.40
2022-12-01T04:47:44.719Z,19.23
2022-12-01T04:50:17.401Z,18.13
2022-12-01T04:52:47.098Z,17.20
2022-12-01T04:55:17.184Z,16.13
2022-12-01T04:57:46.926Z,15.57
2022-12-01T05:00:18.338Z,15.07
2022-12-01T05:02:48.016Z,14.27
2022-12-01T05:05:20.543Z,14.90
2022-12-01T05:07:50.332Z,13.43
2022-12-01T05:10:20.475Z,15.40
2022-12-01T05:12:50.511Z,14.03
2022-12-01T05:15:20.859Z,13.60
2022-12-01T05:17:50.588Z,13.40
2022-12-01T05:20:39.028Z,12.63
2022-12-01T05:23:15.118Z,12.37
2022-12-01T05:25:46.396Z,11.37
2022-12-01T05:28:16.085Z,10.53
2022-12-01T05:30:46.512Z,10.57
2022-12-01T05:33:16.214Z,10.87
2022-12-01T05:35:48.853Z,10.07
2022-12-01T05:38:19.112Z,11.13
2022-12-01T05:40:53.256Z,10.77
2022-12-01T05:43:28.777Z,11.87
2022-12-01T05:45:59.990Z,12.20
2022-12-01T05:48:29.902Z,13.97
2022-12-01T05:51:02.332Z,14.77
2022-12-01T05:53:32.062Z,12.63
2022-12-01T05:56:01.744Z,14.27
2022-12-01T05:58:31.471Z,15.13
2022-12-01T06:01:01.399Z,14.50
2022-12-01T06:03:31.088Z,12.07
2022-12-01T06:06:03.732Z,11.30
2022-12-01T06:08:33.403Z,10.30
2022-12-01T06:11:03.181Z,11.07
2022-12-01T06:13:32.917Z,9.77
2022-12-01T06:16:04.424Z,9.73
2022-12-01T06:18:36.402Z,10.57
2022-12-01T06:21:09.764Z,10.60
2022-12-01T06:23:39.496Z,11.50
2022-12-01T06:26:09.293Z,10.53
2022-12-01T06:28:38.980Z,10.07
2022-12-01T06:31:08.832Z,8.60
2022-12-01T06:33:38.535Z,8.83
2022-12-01T06:36:12.175Z,8.50
2022-12-01T06:38:41.899Z,10.37
2022-12-01T06:41:11.576Z,9.80
2022-12-01T06:43:41.256Z,9.93
2022-12-01T06:46:11.019Z,8.63
2022-12-01T06:48:40.718Z,9.33
2022-12-01T06:51:13.032Z,8.83
2022-12-01T06:53:42.704Z,8.90
2022-12-01T06:56:12.395Z,9.07
2022-12-01T06:58:42.499Z,8.93
2022-12-01T07:01:13.523Z,8.97
2022-12-01T07:03:43.328Z,8.10
2022-12-01T07:06:15.668Z,9.20
2022-12-01T07:08:45.567Z,9.13
2022-12-01T07:11:17.115Z,9.40
2022-12-01T07:13:49.643Z,10.47
2022-12-01T07:16:19.951Z,11.03
2022-12-01T07:18:49.752Z,11.33
2022-12-01T07:21:22.055Z,10.60
2022-12-01T07:23:51.791Z,10.23
2022-12-01T07:26:21.893Z,9.70
2022-12-01T07:28:51.690Z,10.00
2022-12-01T07:31:22.360Z,10.03
2022-12-01T07:33:52.294Z,9.83
2022-12-01T07:36:24.596Z,9.50
2022-12-01T07:38:54.341Z,8.13
2022-12-01T07:41:24.601Z,9.73
2022-12-01T07:43:54.373Z,8.10
2022-12-01T07:46:25.697Z,11.07
2022-12-01T07:48:56.241Z,9.60
2022-12-01T07:51:29.141Z,8.33
2022-12-01T07:53:58.857Z,8.30
2022-12-01T07:56:28.639Z,8.33
2022-12-01T07:58:58.655Z,9.83
2022-12-01T08:01:28.655Z,9.10
2022-12-01T08:04:00.462Z,9.67
2022-12-01T08:06:33.017Z,9.03
2022-12-01T08:09:02.750Z,8.70
2022-12-01T08:11:32.803Z,10.27
2022-12-01T08:14:02.584Z,9.77
2022-12-01T08:16:32.279Z,10.17
2022-12-01T08:19:02.040Z,9.77
2022-12-01T08:21:34.345Z,9.90
2022-12-01T08:24:04.036Z,9.50
2022-12-01T08:26:34.234Z,8.63
2022-12-01T08:29:03.979Z,8.73
2022-12-01T08:31:35.933Z,8.37
2022-12-01T08:34:08.738Z,8.07
2022-12-01T08:36:41.117Z,9.43
2022-12-01T08:39:11.402Z,9.13
2022-12-01T08:41:41.071Z,9.07
2022-12-01T08:44:12.256Z,9.40
2022-12-01T08:46:42.051Z,9.80
2022-12-01T08:49:11.795Z,8.67
2022-12-01T08:51:44.114Z,10.13
2022-12-01T08:54:14.796Z,9.27
2022-12-01T08:56:47.229Z,10.47
2022-12-01T08:59:17.059Z,9.53
2022-12-01T09:01:55.111Z,9.60
2022-12-01T09:04:26.520Z,9.83
2022-12-01T09:07:00.673Z,9.97
2022-12-01T09:09:31.513Z,9.07
2022-12-01T09:12:01.220Z,10.03
2022-12-01T09:14:30.946Z,10.63
2022-12-01T09:17:00.718Z,10.10
2022-12-01T09:19:33.588Z,8.67
2022-12-01T09:22:05.953Z,9.93
2022-12-01T09:24:35.722Z,10.53
2022-12-01T09:27:06.059Z,9.37
2022-12-01T09:29:36.099Z,10.63
2022-12-01T09:32:05.874Z,10.13
2022-12-01T09:34:35.540Z,9.70
2022-12-01T09:37:07.869Z,11.10
2022-12-01T09:39:37.551Z,10.23
2022-12-01T09:42:14.280Z,9.93
2022-12-01T09:44:47.815Z,9.63
2022-12-01T09:47:21.593Z,9.37
2022-12-01T09:49:58.386Z,10.63
2022-12-01T09:52:36.512Z,10.13
2022-12-01T09:55:06.453Z,10.53
2022-12-01T09:57:39.961Z,10.33
2022-12-01T10:00:15.604Z,11.07
2022-12-01T10:02:50.717Z,10.60
2022-12-01T10:05:23.911Z,10.33
2022-12-01T10:07:59.310Z,9.03
2022-12-01T10:10:31.787Z,9.90
2022-12-01T10:13:01.715Z,10.20
2022-12-01T10:15:40.922Z,10.37
2022-12-01T10:18:22.549Z,10.30
2022-12-01T10:20:59.984Z,9.73
2022-12-01T10:23:46.953Z,9.90
2022-12-01T10:26:20.176Z,9.13
2022-12-01T10:29:12.818Z,9.33
2022-12-01T10:31:53.458Z,9.67
2022-12-01T10:34:26.085Z,10.17
2022-12-01T10:36:56.107Z,9.60
2022-12-01T10:39:31.790Z,8.50
2022-12-01T10:42:08.944Z,8.90
2022-12-01T10:44:40.292Z,9.37
2022-12-01T10:47:20.416Z,8.23
2022-12-01T10:49:50.930Z,8.30
2022-12-01T10:52:37.192Z,8.53
2022-12-01T10:55:31.403Z,8.27
2022-12-01T10:58:09.054Z,9.23
2022-12-01T11:00:59.006Z,9.70
2022-12-01T11:03:33.107Z,10.53
2022-12-01T11:06:05.044Z,9.73
2022-12-01T11:08:41.965Z,9.17
2022-12-01T11:11:28.204Z,9.07
2022-12-01T11:13:59.825Z,9.47
2022-12-01T11:16:42.389Z,8.93
2022-12-01T11:19:27.356Z,8.00
2022-12-01T11:21:59.629Z,7.90
2022-12-01T11:24:42.318Z,8.37
2022-12-01T11:27:21.286Z,8.70
2022-12-01T11:29:53.368Z,9.10
2022-12-01T11:32:25.881Z,9.10
2022-12-01T11:34:59.812Z,9.77
2022-12-01T11:37:33.288Z,9.83
2022-12-01T11:40:11.089Z,11.47
2022-12-01T11:42:44.272Z,12.50
2022-12-01T11:45:29.414Z,13.40
2022-12-01T11:48:08.600Z,15.10
2022-12-01T11:50:40.584Z,15.73
2022-12-01T11:53:29.613Z,16.13
2022-12-01T11:56:17.583Z,17.60
2022-12-01T11:58:51.885Z,17.63
2022-12-01T12:01:31.859Z,19.70
2022-12-01T12:04:13.188Z,20.00
2022-12-01T12:06:50.733Z,19.63
2022-12-01T12:09:47.857Z,20.30
2022-12-01T12:12:32.613Z,22.13
2022-12-01T12:15:13.448Z,20.33
2022-12-01T12:18:01.556Z,21.03
2022-12-01T12:20:41.548Z,20.83
2022-12-01T12:23:25.146Z,18.87
2022-12-01T12:26:04.969Z,20.17
2022-12-01T12:28:49.840Z,20.97
2022-12-01T12:31:31.155Z,21.40
2022-12-01T12:34:25.389Z,20.67
2022-12-01T12:37:04.372Z,19.47
2022-12-01T12:39:50.976Z,19.70
2022-12-01T12:42:27.629Z,19.10
2022-12-01T12:45:05.140Z,19.30
2022-12-01T12:47:52.189Z,19.00
2022-12-01T12:50:30.941Z,20.83
2022-12-01T12:53:05.447Z,19.50
2022-12-01T12:55:40.116Z,20.57
2022-12-01T12:58:23.382Z,20.13
2022-12-01T13:00:59.863Z,22.17
2022-12-01T13:03:48.264Z,19.43
2022-12-01T13:06:22.886Z,21.13
2022-12-01T13:08:56.624Z,22.10
2022-12-01T13:11:30.407Z,21.87
2022-12-01T13:14:06.595Z,22.40
2022-12-01T13:16:39.428Z,22.40
2022-12-01T13:19:18.237Z,21.13
2022-12-01T13:21:51.127Z,21.37
2022-12-01T13:24:24.123Z,22.13
2022-12-01T13:27:00.352Z,20.87
2022-12-01T13:29:43.656Z,20.63
2022-12-01T13:32:30.119Z,22.33
2022-12-01T13:35:05.631Z,21.67
2022-12-01T13:37:37.300Z,21.93
2022-12-01T13:40:13.351Z,22.90
2022-12-01T13:42:43.714Z,22.57
2022-12-01T13:45:21.333Z,22.20
2022-12-01T13:47:54.488Z,22.03
2022-12-01T13:51:06.180Z,23.23
2022-12-01T13:53:40.354Z,23.50
2022-12-01T13:56:30.381Z,22.60
2022-12-01T13:59:00.102Z,22.40
2022-12-01T14:01:47.274Z,22.30
2022-12-01T14:04:32.460Z,22.63
2022-12-01T14:07:25.328Z,24.17
2022-12-01T14:10:01.812Z,23.63
2022-12-01T14:12:37.877Z,23.93
2022-12-01T14:15:25.401Z,24.43
2022-12-01T14:18:03.854Z,24.90
2022-12-01T14:20:37.446Z,25.13
2022-12-01T14:23:16.778Z,24.90
2022-12-01T14:26:14.301Z,24.90
2022-12-01T14:29:22.819Z,25.97
2022-12-01T14:32:24.036Z,23.77
2022-12-01T14:34:57.207Z,24.77
2022-12-01T14:37:31.887Z,25.70
2022-12-01T14:40:08.779Z,24.30
2022-12-01T14:42:56.173Z,24.53
2022-12-01T14:45:29.685Z,24.63
2022-12-01T14:48:04.697Z,24.40
2022-12-01T14:50:46.383Z,26.77
2022-12-01T14:53:26.344Z,24.50
2022-12-01T14:55:59.405Z,24.30
2022-12-01T14:58:33.535Z,22.63
2022-12-01T15:01:09.268Z,24.00
2022-12-01T15:03:42.894Z,23.40
2022-12-01T15:06:18.887Z,24.77
2022-12-01T15:09:10.465Z,25.63
2022-12-01T15:11:41.494Z,26.37
2022-12-01T15:14:31.561Z,24.63
2022-12-01T15:17:02.804Z,24.30
2022-12-01T15:19:40.448Z,25.47
2022-12-01T15:22:16.361Z,25.43
2022-12-01T15:24:47.335Z,27.47
2022-12-01T15:27:38.180Z,27.57
2022-12-01T15:30:16.952Z,27.93
2022-12-01T15:32:47.385Z,28.17
2022-12-01T15:35:21.486Z,26.93
2022-12-01T15:37:52.382Z,26.60
2022-12-01T15:41:06.186Z,27.60
2022-12-01T15:43:20.046Z,28.27
2022-12-01T15:45:57.318Z,27.97
2022-12-01T15:48:34.826Z,29.67
2022-12-01T15:51:09.984Z,30.73
2022-12-01T15:53:42.823Z,31.50
2022-12-01T15:56:14.386Z,30.83
2022-12-01T15:58:47.147Z,30.77
2022-12-01T16:01:22.160Z,31.43
2022-12-01T16:03:59.968Z,31.43
2022-12-01T16:06:32.076Z,31.30
2022-12-01T16:09:04.987Z,32.00
2022-12-01T16:11:34.833Z,29.60
2022-12-01T16:14:08.299Z,30.77
2022-12-01T16:16:44.448Z,31.77
2022-12-01T16:19:29.348Z,31.73
2022-12-01T16:22:05.951Z,32.27
2022-12-01T16:24:38.320Z,32.67
2022-12-01T16:27:19.500Z,33.17
2022-12-01T16:29:52.784Z,34.87
2022-12-01T16:32:29.629Z,34.40
2022-12-01T16:34:59.769Z,34.07
2022-12-01T16:37:29.796Z,31.73
2022-12-01T16:40:00.408Z,29.70
2022-12-01T16:42:30.394Z,30.50
2022-12-01T16:45:00.102Z,32.47
2022-12-01T16:47:34.792Z,34.87
2022-12-01T16:50:04.516Z,35.53
2022-12-01T16:52:44.182Z,33.53
2022-12-01T16:55:33.676Z,31.60
2022-12-01T16:58:03.397Z,31.30
2022-12-01T17:00:33.371Z,32.50
2022-12-01T17:03:06.202Z,31.53
2022-12-01T17:05:36.396Z,31.00
2022-12-01T17:08:07.258Z,30.40
2022-12-01T17:10:37.299Z,31.83
2022-12-01T17:13:06.991Z,32.33
2022-12-01T17:15:36.902Z,31.07
2022-12-01T17:18:09.428Z,31.20
2022-12-01T17:20:39.163Z,29.70
2022-12-01T17:23:09.072Z,28.53
2022-12-01T17:25:43.219Z,27.43
2022-12-01T17:28:12.915Z,28.07
2022-12-01T17:30:43.089Z,28.63
2022-12-01T17:33:15.458Z,28.90
2022-12-01T17:35:45.126Z,28.20
2022-12-01T17:38:14.811Z,27.90
2022-12-01T17:40:44.596Z,28.20
2022-12-01T17:43:14.288Z,28.30
2022-12-01T17:45:45.984Z,26.03
2022-12-01T17:48:18.274Z,26.57
2022-12-01T17:50:47.960Z,27.20
2022-12-01T17:53:17.637Z,28.90
2022-12-01T17:55:47.338Z,28.60
2022-12-01T17:58:18.898Z,28.67
2022-12-01T18:00:48.603Z,27.17
2022-12-01T18:03:21.409Z,28.67
2022-12-01T18:05:58.619Z,27.37
2022-12-01T18:08:30.430Z,28.47
2022-12-01T18:11:03.871Z,27.17
2022-12-01T18:13:33.552Z,27.17
2022-12-01T18:16:03.340Z,25.70
2022-12-01T18:18:35.729Z,27.87
2022-12-01T18:21:07.897Z,28.50
2022-12-01T18:23:38.636Z,27.33
2022-12-01T18:26:15.408Z,26.40
2022-12-01T18:28:45.821Z,28.37
2022-12-01T18:31:17.618Z,28.27
2022-12-01T18:33:50.044Z,26.03
2022-12-01T18:36:21.905Z,27.40
2022-12-01T18:38:52.621Z,27.63
2022-12-01T18:41:22.977Z,27.10
2022-12-01T18:43:53.052Z,27.27
2022-12-01T18:46:23.771Z,27.43
2022-12-01T18:49:00.999Z,27.47
2022-12-01T18:51:31.312Z,26.87
2022-12-01T18:54:02.871Z,27.27
2022-12-01T18:56:33.581Z,27.40
2022-12-01T18:59:05.021Z,28.23
2022-12-01T19:01:36.753Z,28.30
2022-12-01T19:04:11.060Z,27.30
2022-12-01T19:06:42.047Z,27.60
2022-12-01T19:09:15.514Z,27.60
2022-12-01T19:11:45.760Z,28.43
2022-12-01T19:14:18.451Z,27.70
2022-12-01T19:16:48.991Z,27.77
2022-12-01T19:19:21.304Z,28.17
2022-12-01T19:21:51.206Z,26.47
2022-12-01T19:24:20.940Z,29.47
2022-12-01T19:26:50.748Z,26.87
2022-12-01T19:29:20.711Z,27.57
2022-12-01T19:31:50.604Z,26.23
2022-12-01T19:34:23.043Z,25.20
2022-12-01T19:36:53.778Z,26.50
2022-12-01T19:39:23.543Z,25.77
2022-12-01T19:41:53.259Z,27.53
2022-12-01T19:44:23.201Z,26.20
2022-12-01T19:46:52.928Z,27.43
2022-12-01T19:49:25.261Z,28.67
2022-12-01T19:51:54.935Z,26.80
2022-12-01T19:54:24.920Z,27.93
2022-12-01T19:56:54.685Z,28.20
2022-12-01T19:59:24.515Z,27.20
2022-12-01T20:01:54.337Z,27.13
2022-12-01T20:04:26.779Z,26.77
2022-12-01T20:06:56.467Z,28.83
2022-12-01T20:09:26.217Z,28.90
2022-12-01T20:11:57.876Z,27.50
2022-12-01T20:14:27.699Z,26.60
2022-12-01T20:16:58.131Z,27.13
2022-12-01T20:19:30.491Z,26.30
2022-12-01T20:22:00.207Z,25.97
2022-12-01T20:24:29.892Z,27.20
2022-12-01T20:26:59.638Z,26.77
2022-12-01T20:29:31.605Z,24.00
2022-12-01T20:32:03.225Z,26.20
2022-12-01T20:34:38.424Z,24.33
2022-12-01T20:37:08.173Z,25.47
2022-12-01T20:39:39.895Z,25.90
2022-12-01T20:42:10.156Z,24.40
2022-12-01T20:44:40.573Z,25.10
2022-12-01T20:47:10.656Z,25.27
2022-12-01T20:49:42.988Z,24.27
2022-12-01T20:52:12.668Z,25.73
2022-12-01T20:54:42.608Z,24.07
2022-12-01T20:57:12.290Z,24.57
2022-12-01T20:59:42.027Z,22.90
2022-12-01T21:02:12.793Z,23.10
2022-12-01T21:04:45.327Z,23.47
2022-12-01T21:07:15.184Z,22.57
2022-12-01T21:09:44.880Z,21.87
2022-12-01T21:12:29.515Z,22.00
2022-12-01T21:15:05.511Z,22.33
2022-12-01T21:17:38.247Z,21.43
2022-12-01T21:20:22.175Z,19.97
2022-12-01T21:22:53.646Z,21.30
2022-12-01T21:25:25.716Z,21.63
2022-12-01T21:27:59.120Z,22.00
2022-12-01T21:30:30.094Z,21.90
2022-12-01T21:33:17.338Z,20.57
2022-12-01T21:35:52.913Z,21.50
2022-12-01T21:38:22.697Z,22.73
2022-12-01T21:40:52.433Z,21.10
2022-12-01T21:43:24.667Z,21.97
2022-12-01T21:46:00.700Z,21.43
2022-12-01T21:48:37.892Z,21.23
2022-12-01T21:51:23.017Z,21.70
2022-12-01T21:53:53.837Z,22.27
2022-12-01T21:56:26.609Z,22.00
2022-12-01T21:59:00.342Z,20.93
2022-12-01T22:01:31.830Z,23.47
2022-12-01T22:04:03.331Z,21.60
2022-12-01T22:06:40.008Z,21.67
2022-12-01T22:09:17.352Z,22.57
2022-12-01T22:11:50.218Z,21.97
2022-12-01T22:14:23.808Z,22.67
2022-12-01T22:16:59.164Z,22.93
2022-12-01T22:19:32.526Z,21.53
2022-12-01T22:22:21.772Z,21.57
2022-12-01T22:24:53.853Z,21.07
2022-12-01T22:27:35.723Z,21.83
2022-12-01T22:30:16.916Z,20.20
2022-12-01T22:32:57.074Z,21.10
2022-12-01T22:35:36.529Z,21.93
2022-12-01T22:38:29.777Z,20.77
2022-12-01T22:41:01.657Z,21.90
2022-12-01T22:43:50.364Z,22.53
2022-12-01T22:46:33.063Z,22.07
2022-12-01T22:49:05.795Z,22.27
2022-12-01T22:51:43.162Z,21.07
2022-12-01T22:54:33.044Z,22.10
2022-12-01T22:57:35.113Z,22.10
2022-12-01T23:00:16.780Z,23.70
2022-12-01T23:02:46.727Z,21.83
2022-12-01T23:05:24.131Z,20.50
2022-12-01T23:07:54.979Z,22.50
2022-12-01T23:10:29.032Z,21.70
2022-12-01T23:13:02.692Z,21.63
2022-12-01T23:15:34.990Z,22.83
2022-12-01T23:18:14.555Z,20.43
2022-12-01T23:20:45.079Z,22.50
2022-12-01T23:23:17.624Z,20.57
2022-12-01T23:25:52.742Z,21.80
2022-12-01T23:28:23.172Z,20.77
2022-12-01T23:30:55.784Z,20.30
2022-12-01T23:33:26.936Z,21.27
2022-12-01T23:35:59.241Z,20.47
2022-12-01T23:38:33.230Z,19.73
2022-12-01T23:41:09.583Z,20.10
2022-12-01T23:43:42.885Z,20.43
2022-12-01T23:46:15.050Z,21.47
2022-12-01T23:48:48.630Z,21.60
2022-12-01T23:51:22.785Z,20.13
2022-12-01T23:53:53.660Z,21.30
2022-12-01T23:56:30.326Z,21.00
2022-12-01T23:59:03.472Z,20.10
